createdAt,value
2023-02-06T00:00:38.848Z,1020.41
2023-02-06T00:01:38.871Z,1020.38
2023-02-06T00:02:38.871Z,1020.41
2023-02-06T00:03:38.838Z,1020.40
2023-02-06T00:04:38.799Z,1020.37
2023-02-06T00:05:38.805Z,1020.41
2023-02-06T00:06:38.805Z,1020.42
2023-02-06T00:07:38.769Z,1020.47
2023-02-06T00:08:38.863Z,1020.39
2023-02-06T00:09:38.760Z,1020.39
2023-02-06T00:10:38.741Z,1020.49
2023-02-06T00:11:38.755Z,1020.44
2023-02-06T00:12:38.690Z,1020.40
2023-02-06T00:13:38.697Z,1020.41
2023-02-06T00:14:38.896Z,1020.45
2023-02-06T00:15:38.943Z,1020.47
2023-02-06T00:16:38.675Z,1020.48
2023-02-06T00:17:38.657Z,1020.51
2023-02-06T00:18:38.653Z,1020.48
2023-02-06T00:19:38.609Z,1020.48
2023-02-06T00:20:38.637Z,1020.52
2023-02-06T00:21:38.580Z,1020.56
2023-02-06T00:22:38.569Z,1020.52
2023-02-06T00:23:38.559Z,1020.47
2023-02-06T00:24:38.540Z,1020.53
2023-02-06T00:25:38.597Z,1020.56
2023-02-06T00:26:38.531Z,1020.53
2023-02-06T00:27:38.532Z,1020.49
2023-02-06T00:28:38.501Z,1020.49
2023-02-06T00:29:38.507Z,1020.49
2023-02-06T00:30:38.505Z,1020.49
2023-02-06T00:31:38.528Z,1020.50
2023-02-06T00:32:38.525Z,1020.49
2023-02-06T00:33:38.465Z,1020.51
2023-02-06T00:34:38.432Z,1020.48
2023-02-06T00:35:38.441Z,1020.47
2023-02-06T00:36:38.404Z,1020.53
2023-02-06T00:37:38.415Z,1020.43
2023-02-06T00:38:38.392Z,1020.53
2023-02-06T00:39:38.368Z,1020.50
2023-02-06T00:40:38.380Z,1020.50
2023-02-06T00:41:38.357Z,1020.48
2023-02-06T00:42:38.356Z,1020.51
2023-02-06T00:43:38.358Z,1020.57
2023-02-06T00:44:38.336Z,1020.51
2023-02-06T00:45:38.305Z,1020.49
2023-02-06T00:46:38.302Z,1020.48
2023-02-06T00:47:38.288Z,1020.52
2023-02-06T00:48:38.268Z,1020.47
2023-02-06T00:49:38.287Z,1020.58
2023-02-06T00:50:38.246Z,1020.56
2023-02-06T00:51:38.240Z,1020.58
2023-02-06T00:52:38.238Z,1020.59
2023-02-06T00:53:38.207Z,1020.56
2023-02-06T00:54:38.229Z,1020.57
2023-02-06T00:55:38.190Z,1020.60
2023-02-06T00:56:38.224Z,1020.61
2023-02-06T00:57:38.170Z,1020.61
2023-02-06T00:58:38.149Z,1020.67
2023-02-06T00:59:38.181Z,1020.67
2023-02-06T01:00:38.198Z,1020.62
2023-02-06T01:01:38.144Z,1020.61
2023-02-06T01:02:38.188Z,1020.72
2023-02-06T01:03:38.193Z,1020.69
2023-02-06T01:04:38.086Z,1020.70
2023-02-06T01:05:38.405Z,1020.64
2023-02-06T01:06:38.076Z,1020.65
2023-02-06T01:07:38.116Z,1020.65
2023-02-06T01:08:38.042Z,1020.63
2023-02-06T01:09:38.025Z,1020.68
2023-02-06T01:10:38.021Z,1020.66
2023-02-06T01:11:37.998Z,1020.62
2023-02-06T01:12:38.042Z,1020.58
2023-02-06T01:13:38.048Z,1020.67
2023-02-06T01:14:37.963Z,1020.70
2023-02-06T01:15:37.943Z,1020.68
2023-02-06T01:16:37.950Z,1020.67
2023-02-06T01:17:37.973Z,1020.77
2023-02-06T01:18:37.913Z,1020.74
2023-02-06T01:19:37.912Z,1020.72
2023-02-06T01:20:37.888Z,1020.74
2023-02-06T01:21:37.875Z,1020.74
2023-02-06T01:22:37.866Z,1020.74
2023-02-06T01:23:37.892Z,1020.72
2023-02-06T01:24:37.859Z,1020.72
2023-02-06T01:25:37.988Z,1020.76
2023-02-06T01:26:37.812Z,1020.76
2023-02-06T01:27:37.836Z,1020.74
2023-02-06T01:28:37.831Z,1020.74
2023-02-06T01:29:37.844Z,1020.76
2023-02-06T01:30:37.785Z,1020.70
2023-02-06T01:31:37.804Z,1020.68
2023-02-06T01:32:37.749Z,1020.73
2023-02-06T01:33:37.755Z,1020.71
2023-02-06T01:34:37.728Z,1020.67
2023-02-06T01:35:37.818Z,1020.67
2023-02-06T01:36:37.711Z,1020.65
2023-02-06T01:37:37.718Z,1020.61
2023-02-06T01:38:37.680Z,1020.66
2023-02-06T01:39:37.662Z,1020.65
2023-02-06T01:40:37.717Z,1020.67
2023-02-06T01:41:37.655Z,1020.64
2023-02-06T01:42:37.697Z,1020.63
2023-02-06T01:43:37.615Z,1020.69
2023-02-06T01:44:37.606Z,1020.69
2023-02-06T01:45:37.746Z,1020.65
2023-02-06T01:46:37.632Z,1020.64
2023-02-06T01:47:37.672Z,1020.73
2023-02-06T01:48:37.547Z,1020.68
2023-02-06T01:49:37.545Z,1020.67
2023-02-06T01:50:37.550Z,1020.78
2023-02-06T01:51:37.540Z,1020.70
2023-02-06T01:52:37.533Z,1020.72
2023-02-06T01:53:37.506Z,1020.73
2023-02-06T01:54:37.506Z,1020.75
2023-02-06T01:55:37.761Z,1020.72
2023-02-06T01:56:37.468Z,1020.68
2023-02-06T01:57:37.445Z,1020.67
2023-02-06T01:58:37.491Z,1020.64
2023-02-06T01:59:37.427Z,1020.64
2023-02-06T02:00:37.423Z,1020.63
2023-02-06T02:01:37.430Z,1020.68
2023-02-06T02:02:37.397Z,1020.64
2023-02-06T02:03:37.421Z,1020.58
2023-02-06T02:04:37.398Z,1020.58
2023-02-06T02:05:37.720Z,1020.62
2023-02-06T02:06:37.354Z,1020.55
2023-02-06T02:07:37.344Z,1020.56
2023-02-06T02:08:37.343Z,1020.52
2023-02-06T02:09:37.326Z,1020.47
2023-02-06T02:10:37.299Z,1020.53
2023-02-06T02:11:37.300Z,1020.52
2023-02-06T02:12:37.287Z,1020.48
2023-02-06T02:13:37.283Z,1020.50
2023-02-06T02:14:37.277Z,1020.46
2023-02-06T02:15:37.468Z,1020.46
2023-02-06T02:16:37.269Z,1020.41
2023-02-06T02:17:37.224Z,1020.43
2023-02-06T02:18:37.233Z,1020.44
2023-02-06T02:19:37.222Z,1020.46
2023-02-06T02:20:37.214Z,1020.43
2023-02-06T02:21:37.169Z,1020.46
2023-02-06T02:22:37.168Z,1020.40
2023-02-06T02:23:37.161Z,1020.42
2023-02-06T02:24:37.162Z,1020.38
2023-02-06T02:25:37.482Z,1020.38
2023-02-06T02:26:37.148Z,1020.35
2023-02-06T02:27:37.112Z,1020.39
2023-02-06T02:28:37.086Z,1020.31
2023-02-06T02:29:37.076Z,1020.33
2023-02-06T02:30:37.152Z,1020.35
2023-02-06T02:31:37.360Z,1020.33
2023-02-06T02:32:37.089Z,1020.33
2023-02-06T02:33:37.082Z,1020.27
2023-02-06T02:34:37.045Z,1020.25
2023-02-06T02:35:37.361Z,1020.29
2023-02-06T02:36:37.011Z,1020.33
2023-02-06T02:37:37.020Z,1020.29
2023-02-06T02:38:36.968Z,1020.27
2023-02-06T02:39:36.961Z,1020.31
2023-02-06T02:40:36.976Z,1020.27
2023-02-06T02:41:36.949Z,1020.34
2023-02-06T02:42:36.941Z,1020.35
2023-02-06T02:43:36.959Z,1020.26
2023-02-06T02:44:36.912Z,1020.36
2023-02-06T02:45:37.301Z,1020.31
2023-02-06T02:46:36.880Z,1020.32
2023-02-06T02:47:36.867Z,1020.37
2023-02-06T02:48:36.888Z,1020.34
2023-02-06T02:49:36.879Z,1020.35
2023-02-06T02:50:36.842Z,1020.41
2023-02-06T02:51:36.836Z,1020.38
2023-02-06T02:52:36.837Z,1020.36
2023-02-06T02:53:36.825Z,1020.43
2023-02-06T02:54:36.836Z,1020.50
2023-02-06T02:55:37.080Z,1020.42
2023-02-06T02:56:36.758Z,1020.46
2023-02-06T02:57:36.757Z,1020.50
2023-02-06T02:58:36.746Z,1020.46
2023-02-06T02:59:36.793Z,1020.46
2023-02-06T03:00:36.816Z,1020.46
2023-02-06T03:01:36.704Z,1020.49
2023-02-06T03:02:36.685Z,1020.43
2023-02-06T03:03:36.711Z,1020.50
2023-02-06T03:04:36.692Z,1020.44
2023-02-06T03:05:37.019Z,1020.50
2023-02-06T03:06:36.689Z,1020.51
2023-02-06T03:07:36.649Z,1020.57
2023-02-06T03:08:36.623Z,1020.53
2023-02-06T03:09:36.624Z,1020.51
2023-02-06T03:10:36.606Z,1020.60
2023-02-06T03:11:36.605Z,1020.55
2023-02-06T03:12:36.605Z,1020.55
2023-02-06T03:13:36.575Z,1020.45
2023-02-06T03:14:36.563Z,1020.53
2023-02-06T03:15:36.886Z,1020.46
2023-02-06T03:16:36.626Z,1020.48
2023-02-06T03:17:36.543Z,1020.49
2023-02-06T03:18:36.593Z,1020.46
2023-02-06T03:19:36.503Z,1020.46
2023-02-06T03:20:36.495Z,1020.49
2023-02-06T03:21:36.490Z,1020.46
2023-02-06T03:22:36.460Z,1020.44
2023-02-06T03:23:37.576Z,1020.42
2023-02-06T03:24:36.442Z,1020.44
2023-02-06T03:25:36.764Z,1020.43
2023-02-06T03:26:36.422Z,1020.42
2023-02-06T03:27:36.446Z,1020.52
2023-02-06T03:28:36.431Z,1020.42
2023-02-06T03:29:36.434Z,1020.40
2023-02-06T03:30:36.384Z,1020.33
2023-02-06T03:31:36.432Z,1020.37
2023-02-06T03:32:36.366Z,1020.38
2023-02-06T03:33:36.349Z,1020.37
2023-02-06T03:34:36.319Z,1020.40
2023-02-06T03:35:36.810Z,1020.43
2023-02-06T03:36:36.309Z,1020.38
2023-02-06T03:37:36.288Z,1020.43
2023-02-06T03:38:36.279Z,1020.43
2023-02-06T03:39:36.276Z,1020.46
2023-02-06T03:40:36.254Z,1020.41
2023-02-06T03:41:36.281Z,1020.43
2023-02-06T03:42:36.247Z,1020.45
2023-02-06T03:43:36.220Z,1020.48
2023-02-06T03:44:36.216Z,1020.47
2023-02-06T03:45:36.465Z,1020.50
2023-02-06T03:46:36.272Z,1020.49
2023-02-06T03:47:36.239Z,1020.44
2023-02-06T03:48:36.601Z,1020.49
2023-02-06T03:49:36.188Z,1020.49
2023-02-06T03:50:36.181Z,1020.53
2023-02-06T03:51:36.177Z,1020.51
2023-02-06T03:52:36.137Z,1020.47
2023-02-06T03:53:36.132Z,1020.50
2023-02-06T03:54:36.113Z,1020.47
2023-02-06T03:55:36.423Z,1020.53
2023-02-06T03:56:36.094Z,1020.45
2023-02-06T03:57:36.116Z,1020.47
2023-02-06T03:58:36.079Z,1020.43
2023-02-06T03:59:36.145Z,1020.47
2023-02-06T04:00:36.135Z,1020.48
2023-02-06T04:01:36.187Z,1020.50
2023-02-06T04:02:36.070Z,1020.53
2023-02-06T04:03:36.008Z,1020.49
2023-02-06T04:04:36.036Z,1020.55
2023-02-06T04:05:36.393Z,1020.56
2023-02-06T04:06:36.023Z,1020.56
2023-02-06T04:07:36.018Z,1020.55
2023-02-06T04:08:35.985Z,1020.54
2023-02-06T04:09:35.933Z,1020.54
2023-02-06T04:10:35.970Z,1020.55
2023-02-06T04:11:35.917Z,1020.50
2023-02-06T04:12:35.959Z,1020.45
2023-02-06T04:13:36.020Z,1020.48
2023-02-06T04:14:35.939Z,1020.56
2023-02-06T04:15:36.208Z,1020.54
2023-02-06T04:16:35.965Z,1020.56
2023-02-06T04:17:46.328Z,1020.52
2023-02-06T04:18:36.873Z,1020.52
2023-02-06T04:19:35.873Z,1020.57
2023-02-06T04:20:35.853Z,1020.58
2023-02-06T04:21:35.883Z,1020.54
2023-02-06T04:22:35.795Z,1020.53
2023-02-06T04:23:35.769Z,1020.52
2023-02-06T04:24:35.784Z,1020.55
2023-02-06T04:25:36.052Z,1020.61
2023-02-06T04:26:35.771Z,1020.57
2023-02-06T04:27:35.910Z,1020.63
2023-02-06T04:28:35.733Z,1020.61
2023-02-06T04:29:35.756Z,1020.63
2023-02-06T04:30:35.816Z,1020.64
2023-02-06T04:31:35.775Z,1020.66
2023-02-06T04:32:35.809Z,1020.70
2023-02-06T04:33:35.686Z,1020.73
2023-02-06T04:34:35.715Z,1020.75
2023-02-06T04:35:35.891Z,1020.70
2023-02-06T04:36:35.682Z,1020.69
2023-02-06T04:37:35.708Z,1020.69
2023-02-06T04:38:35.999Z,1020.75
2023-02-06T04:39:35.674Z,1020.73
2023-02-06T04:40:35.673Z,1020.72
2023-02-06T04:41:35.596Z,1020.79
2023-02-06T04:42:35.768Z,1020.72
2023-02-06T04:43:35.613Z,1020.78
2023-02-06T04:44:35.541Z,1020.75
2023-02-06T04:45:35.967Z,1020.79
2023-02-06T04:46:35.576Z,1020.80
2023-02-06T04:47:35.553Z,1020.74
2023-02-06T04:48:35.526Z,1020.81
2023-02-06T04:49:35.928Z,1020.70
2023-02-06T04:50:35.476Z,1020.67
2023-02-06T04:51:35.481Z,1020.67
2023-02-06T04:52:35.597Z,1020.70
2023-02-06T04:53:35.452Z,1020.62
2023-02-06T04:54:35.488Z,1020.62
2023-02-06T04:55:35.640Z,1020.62
2023-02-06T04:56:35.412Z,1020.63
2023-02-06T04:57:35.492Z,1020.66
2023-02-06T04:58:35.413Z,1020.71
2023-02-06T04:59:35.423Z,1020.73
2023-02-06T05:00:36.204Z,1020.71
2023-02-06T05:01:35.420Z,1020.72
2023-02-06T05:02:35.440Z,1020.74
2023-02-06T05:03:35.351Z,1020.69
2023-02-06T05:04:35.329Z,1020.65
2023-02-06T05:05:35.609Z,1020.69
2023-02-06T05:06:35.372Z,1020.73
2023-02-06T05:07:35.340Z,1020.71
2023-02-06T05:08:35.346Z,1020.67
2023-02-06T05:09:35.317Z,1020.66
2023-02-06T05:10:35.300Z,1020.62
2023-02-06T05:11:35.230Z,1020.68
2023-02-06T05:12:35.272Z,1020.65
2023-02-06T05:13:35.230Z,1020.73
2023-02-06T05:14:35.235Z,1020.64
2023-02-06T05:15:35.587Z,1020.76
2023-02-06T05:16:35.161Z,1020.70
2023-02-06T05:17:35.201Z,1020.73
2023-02-06T05:18:35.168Z,1020.76
2023-02-06T05:19:35.167Z,1020.76
2023-02-06T05:20:35.134Z,1020.75
2023-02-06T05:21:35.140Z,1020.74
2023-02-06T05:22:35.100Z,1020.75
2023-02-06T05:23:35.078Z,1020.71
2023-02-06T05:24:35.070Z,1020.74
2023-02-06T05:25:35.298Z,1020.71
2023-02-06T05:26:35.098Z,1020.65
2023-02-06T05:27:35.050Z,1020.71
2023-02-06T05:28:35.031Z,1020.68
2023-02-06T05:29:35.097Z,1020.64
2023-02-06T05:30:35.106Z,1020.71
2023-02-06T05:31:35.132Z,1020.59
2023-02-06T05:32:34.978Z,1020.61
2023-02-06T05:33:34.999Z,1020.62
2023-02-06T05:34:34.980Z,1020.58
2023-02-06T05:35:35.211Z,1020.63
2023-02-06T05:36:34.921Z,1020.61
2023-02-06T05:37:35.045Z,1020.64
2023-02-06T05:38:34.894Z,1020.68
2023-02-06T05:39:34.990Z,1020.65
2023-02-06T05:40:35.018Z,1020.68
2023-02-06T05:41:34.871Z,1020.69
2023-02-06T05:42:34.908Z,1020.74
2023-02-06T05:43:34.898Z,1020.69
2023-02-06T05:44:34.852Z,1020.69
2023-02-06T05:45:36.155Z,1020.70
2023-02-06T05:46:34.947Z,1020.73
2023-02-06T05:47:34.852Z,1020.74
2023-02-06T05:48:34.855Z,1020.76
2023-02-06T05:49:34.770Z,1020.75
2023-02-06T05:50:34.777Z,1020.71
2023-02-06T05:51:34.837Z,1020.72
2023-02-06T05:52:34.748Z,1020.78
2023-02-06T05:53:34.775Z,1020.70
2023-02-06T05:54:34.715Z,1020.65
2023-02-06T05:55:34.999Z,1020.79
2023-02-06T05:56:34.700Z,1020.65
2023-02-06T05:57:34.715Z,1020.64
2023-02-06T05:58:34.648Z,1020.63
2023-02-06T05:59:34.667Z,1020.62
2023-02-06T06:00:34.651Z,1020.57
2023-02-06T06:01:34.656Z,1020.61
2023-02-06T06:02:34.626Z,1020.61
2023-02-06T06:03:34.662Z,1020.62
2023-02-06T06:04:34.699Z,1020.66
2023-02-06T06:05:34.818Z,1020.71
2023-02-06T06:06:34.678Z,1020.65
2023-02-06T06:07:34.610Z,1020.62
2023-02-06T06:08:34.572Z,1020.61
2023-02-06T06:09:34.588Z,1020.62
2023-02-06T06:10:34.519Z,1020.66
2023-02-06T06:11:34.552Z,1020.61
2023-02-06T06:12:34.550Z,1020.61
2023-02-06T06:13:34.545Z,1020.59
2023-02-06T06:14:34.533Z,1020.57
2023-02-06T06:15:34.801Z,1020.58
2023-02-06T06:16:34.462Z,1020.56
2023-02-06T06:17:34.483Z,1020.51
2023-02-06T06:18:34.434Z,1020.61
2023-02-06T06:19:34.450Z,1020.57
2023-02-06T06:20:34.492Z,1020.55
2023-02-06T06:21:34.392Z,1020.60
2023-02-06T06:22:34.375Z,1020.59
2023-02-06T06:23:34.392Z,1020.62
2023-02-06T06:24:34.394Z,1020.61
2023-02-06T06:25:34.687Z,1020.67
2023-02-06T06:26:34.375Z,1020.65
2023-02-06T06:27:34.323Z,1020.69
2023-02-06T06:28:34.314Z,1020.75
2023-02-06T06:29:34.336Z,1020.79
2023-02-06T06:30:35.674Z,1020.81
2023-02-06T06:31:34.359Z,1020.88
2023-02-06T06:32:34.297Z,1020.85
2023-02-06T06:33:34.277Z,1020.84
2023-02-06T06:34:34.263Z,1020.82
2023-02-06T06:35:34.389Z,1020.88
2023-02-06T06:36:34.262Z,1020.81
2023-02-06T06:37:34.208Z,1020.74
2023-02-06T06:38:34.246Z,1020.78
2023-02-06T06:39:34.218Z,1020.72
2023-02-06T06:40:34.186Z,1020.71
2023-02-06T06:41:34.206Z,1020.75
2023-02-06T06:42:34.161Z,1020.74
2023-02-06T06:43:34.148Z,1020.74
2023-02-06T06:44:34.164Z,1020.73
2023-02-06T06:45:34.344Z,1020.77
2023-02-06T06:46:34.121Z,1020.75
2023-02-06T06:47:34.099Z,1020.76
2023-02-06T06:48:34.104Z,1020.84
2023-02-06T06:49:34.076Z,1020.78
2023-02-06T06:50:34.089Z,1020.71
2023-02-06T06:51:34.085Z,1020.78
2023-02-06T06:52:34.022Z,1020.74
2023-02-06T06:53:34.042Z,1020.75
2023-02-06T06:54:34.032Z,1020.72
2023-02-06T06:55:34.470Z,1020.76
2023-02-06T06:56:34.090Z,1020.75
2023-02-06T06:57:34.093Z,1020.78
2023-02-06T06:58:33.993Z,1020.84
2023-02-06T06:59:33.981Z,1020.85
2023-02-06T07:00:33.987Z,1020.89
2023-02-06T07:01:33.974Z,1020.89
2023-02-06T07:02:33.989Z,1020.89
2023-02-06T07:03:33.990Z,1020.92
2023-02-06T07:04:33.938Z,1020.89
2023-02-06T07:05:34.128Z,1020.86
2023-02-06T07:06:33.906Z,1020.91
2023-02-06T07:07:33.994Z,1020.93
2023-02-06T07:08:33.873Z,1020.94
2023-02-06T07:09:33.878Z,1020.85
2023-02-06T07:10:33.905Z,1020.84
2023-02-06T07:11:33.840Z,1020.84
2023-02-06T07:12:33.844Z,1020.85
2023-02-06T07:13:33.876Z,1020.80
2023-02-06T07:14:33.816Z,1020.84
2023-02-06T07:15:34.070Z,1020.87
2023-02-06T07:16:33.891Z,1020.82
2023-02-06T07:17:33.818Z,1020.86
2023-02-06T07:18:33.840Z,1020.82
2023-02-06T07:19:33.810Z,1020.79
2023-02-06T07:20:33.797Z,1020.85
2023-02-06T07:21:33.757Z,1020.80
2023-02-06T07:22:33.707Z,1020.80
2023-02-06T07:23:33.713Z,1020.78
2023-02-06T07:24:33.718Z,1020.85
2023-02-06T07:25:33.851Z,1020.89
2023-02-06T07:26:33.696Z,1020.87
2023-02-06T07:27:33.687Z,1020.87
2023-02-06T07:28:33.644Z,1020.85
2023-02-06T07:29:33.669Z,1020.92
2023-02-06T07:30:33.710Z,1020.86
2023-02-06T07:31:33.642Z,1020.87
2023-02-06T07:32:33.624Z,1020.86
2023-02-06T07:33:33.586Z,1020.89
2023-02-06T07:34:33.602Z,1021.01
2023-02-06T07:35:33.648Z,1021.00
2023-02-06T07:36:33.556Z,1020.97
2023-02-06T07:37:33.549Z,1020.94
2023-02-06T07:38:33.578Z,1021.00
2023-02-06T07:39:33.589Z,1020.92
2023-02-06T07:40:44.684Z,1020.86
2023-02-06T07:41:34.523Z,1020.90
2023-02-06T07:42:33.494Z,1020.82
2023-02-06T07:43:33.511Z,1020.82
2023-02-06T07:44:33.492Z,1020.82
2023-02-06T07:45:33.520Z,1020.81
2023-02-06T07:46:33.515Z,1020.80
2023-02-06T07:47:33.460Z,1020.79
2023-02-06T07:48:33.529Z,1020.83
2023-02-06T07:49:33.502Z,1020.85
2023-02-06T07:50:33.439Z,1020.79
2023-02-06T07:51:33.371Z,1020.81
2023-02-06T07:52:33.391Z,1020.83
2023-02-06T07:53:33.389Z,1020.81
2023-02-06T07:54:33.349Z,1020.85
2023-02-06T07:55:33.360Z,1020.82
2023-02-06T07:56:33.370Z,1020.85
2023-02-06T07:57:33.421Z,1020.86
2023-02-06T07:58:33.347Z,1020.83
2023-02-06T07:59:33.329Z,1020.94
2023-02-06T08:00:33.272Z,1020.90
2023-02-06T08:01:33.360Z,1020.90
2023-02-06T08:02:33.280Z,1020.87
2023-02-06T08:03:33.330Z,1020.90
2023-02-06T08:04:33.295Z,1020.88
2023-02-06T08:05:33.266Z,1020.90
2023-02-06T08:06:33.394Z,1020.94
2023-02-06T08:07:33.300Z,1020.92
2023-02-06T08:08:33.161Z,1020.86
2023-02-06T08:09:33.305Z,1020.90
2023-02-06T08:10:33.183Z,1020.83
2023-02-06T08:11:33.170Z,1020.96
2023-02-06T08:12:33.142Z,1020.89
2023-02-06T08:13:33.122Z,1020.91
2023-02-06T08:14:33.094Z,1020.98
2023-02-06T08:15:33.424Z,1020.92
2023-02-06T08:16:33.079Z,1020.99
2023-02-06T08:17:33.082Z,1020.99
2023-02-06T08:18:33.133Z,1020.98
2023-02-06T08:19:33.045Z,1020.93
2023-02-06T08:20:33.030Z,1020.98
2023-02-06T08:21:33.108Z,1020.95
2023-02-06T08:22:33.024Z,1020.94
2023-02-06T08:23:33.008Z,1020.90
2023-02-06T08:24:33.146Z,1020.87
2023-02-06T08:25:33.040Z,1020.88
2023-02-06T08:26:33.027Z,1020.81
2023-02-06T08:27:33.107Z,1020.88
2023-02-06T08:28:32.983Z,1020.86
2023-02-06T08:29:32.932Z,1020.89
2023-02-06T08:30:33.031Z,1020.95
2023-02-06T08:31:33.019Z,1020.94
2023-02-06T08:32:32.912Z,1020.91
2023-02-06T08:33:32.980Z,1020.97
2023-02-06T08:34:32.876Z,1021.00
2023-02-06T08:35:33.029Z,1020.96
2023-02-06T08:36:32.853Z,1020.97
2023-02-06T08:37:32.853Z,1020.96
2023-02-06T08:38:32.825Z,1020.97
2023-02-06T08:39:32.853Z,1020.99
2023-02-06T08:40:32.803Z,1020.92
2023-02-06T08:41:32.810Z,1020.97
2023-02-06T08:42:32.798Z,1020.98
2023-02-06T08:43:33.244Z,1020.93
2023-02-06T08:44:32.770Z,1020.89
2023-02-06T08:45:32.777Z,1020.91
2023-02-06T08:46:32.744Z,1020.89
2023-02-06T08:47:32.722Z,1020.87
2023-02-06T08:48:32.712Z,1020.90
2023-02-06T08:49:32.703Z,1020.84
2023-02-06T08:50:32.708Z,1020.90
2023-02-06T08:51:32.696Z,1020.89
2023-02-06T08:52:32.669Z,1020.85
2023-02-06T08:53:32.662Z,1020.80
2023-02-06T08:54:35.225Z,1020.82
2023-02-06T08:55:32.623Z,1020.82
2023-02-06T08:56:32.667Z,1020.80
2023-02-06T08:57:32.603Z,1020.82
2023-02-06T08:58:32.609Z,1020.80
2023-02-06T08:59:32.629Z,1020.79
2023-02-06T09:00:32.584Z,1020.80
2023-02-06T09:01:32.640Z,1020.81
2023-02-06T09:02:32.662Z,1020.81
2023-02-06T09:03:32.545Z,1020.84
2023-02-06T09:04:32.587Z,1020.78
2023-02-06T09:05:32.526Z,1020.78
2023-02-06T09:06:32.515Z,1020.86
2023-02-06T09:07:32.541Z,1020.86
2023-02-06T09:08:32.477Z,1020.87
2023-02-06T09:09:32.476Z,1020.90
2023-02-06T09:10:32.529Z,1020.86
2023-02-06T09:11:32.474Z,1020.87
2023-02-06T09:12:32.451Z,1020.90
2023-02-06T09:13:32.468Z,1020.95
2023-02-06T09:14:32.409Z,1020.97
2023-02-06T09:15:32.428Z,1020.96
2023-02-06T09:16:32.408Z,1020.97
2023-02-06T09:17:32.431Z,1021.04
2023-02-06T09:18:32.362Z,1021.01
2023-02-06T09:19:32.370Z,1021.00
2023-02-06T09:20:32.356Z,1021.01
2023-02-06T09:21:32.329Z,1021.07
2023-02-06T09:22:32.317Z,1021.05
2023-02-06T09:23:32.339Z,1021.05
2023-02-06T09:24:32.341Z,1021.00
2023-02-06T09:25:32.309Z,1021.02
2023-02-06T09:26:32.259Z,1020.94
2023-02-06T09:27:32.250Z,1021.00
2023-02-06T09:28:32.252Z,1021.00
2023-02-06T09:29:32.389Z,1020.91
2023-02-06T09:30:32.373Z,1020.99
2023-02-06T09:31:32.317Z,1020.93
2023-02-06T09:32:32.209Z,1020.91
2023-02-06T09:33:32.220Z,1020.90
2023-02-06T09:34:32.211Z,1020.80
2023-02-06T09:35:32.220Z,1020.81
2023-02-06T09:36:32.143Z,1020.78
2023-02-06T09:37:32.222Z,1020.80
2023-02-06T09:38:32.128Z,1020.84
2023-02-06T09:39:32.142Z,1020.72
2023-02-06T09:40:32.092Z,1020.73
2023-02-06T09:41:32.144Z,1020.79
2023-02-06T09:42:32.097Z,1020.72
2023-02-06T09:43:32.071Z,1020.70
2023-02-06T09:44:32.075Z,1020.75
2023-02-06T09:45:32.060Z,1020.74
2023-02-06T09:46:32.078Z,1020.77
2023-02-06T09:47:32.073Z,1020.72
2023-02-06T09:48:32.015Z,1020.69
2023-02-06T09:49:32.012Z,1020.71
2023-02-06T09:50:31.985Z,1020.75
2023-02-06T09:51:31.981Z,1020.64
2023-02-06T09:52:31.999Z,1020.65
2023-02-06T09:53:31.973Z,1020.67
2023-02-06T09:54:31.936Z,1020.63
2023-02-06T09:55:31.957Z,1020.65
2023-02-06T09:56:31.924Z,1020.62
2023-02-06T09:57:31.944Z,1020.63
2023-02-06T09:58:31.908Z,1020.60
2023-02-06T09:59:31.924Z,1020.55
2023-02-06T10:00:31.887Z,1020.57
2023-02-06T10:01:31.879Z,1020.61
2023-02-06T10:02:31.976Z,1020.51
2023-02-06T10:03:31.835Z,1020.58
2023-02-06T10:04:31.872Z,1020.51
2023-02-06T10:05:31.841Z,1020.51
2023-02-06T10:06:31.813Z,1020.53
2023-02-06T10:07:31.825Z,1020.53
2023-02-06T10:08:34.231Z,1020.46
2023-02-06T10:09:31.780Z,1020.51
2023-02-06T10:10:31.781Z,1020.44
2023-02-06T10:11:31.765Z,1020.32
2023-02-06T10:12:31.766Z,1020.42
2023-02-06T10:13:31.729Z,1020.40
2023-02-06T10:14:31.732Z,1020.38
2023-02-06T10:15:31.699Z,1020.38
2023-02-06T10:16:31.791Z,1020.33
2023-02-06T10:17:31.688Z,1020.36
2023-02-06T10:18:31.675Z,1020.37
2023-02-06T10:19:31.658Z,1020.41
2023-02-06T10:20:31.680Z,1020.38
2023-02-06T10:21:31.649Z,1020.35
2023-02-06T10:22:33.998Z,1020.41
2023-02-06T10:23:31.628Z,1020.34
2023-02-06T10:24:31.618Z,1020.30
2023-02-06T10:25:31.633Z,1020.24
2023-02-06T10:26:31.588Z,1020.28
2023-02-06T10:27:31.571Z,1020.28
2023-02-06T10:28:31.588Z,1020.28
2023-02-06T10:29:31.559Z,1020.28
2023-02-06T10:30:31.550Z,1020.26
2023-02-06T10:31:31.587Z,1020.28
2023-02-06T10:32:31.520Z,1020.24
2023-02-06T10:33:31.531Z,1020.16
2023-02-06T10:34:31.582Z,1020.20
2023-02-06T10:35:31.505Z,1020.17
2023-02-06T10:36:31.523Z,1020.16
2023-02-06T10:37:31.477Z,1020.13
2023-02-06T10:38:31.462Z,1020.11
2023-02-06T10:39:31.444Z,1020.09
2023-02-06T10:40:31.554Z,1020.09
2023-02-06T10:41:31.454Z,1020.10
2023-02-06T10:42:31.422Z,1020.08
2023-02-06T10:43:31.419Z,1020.09
2023-02-06T10:44:31.441Z,1020.06
2023-02-06T10:45:31.377Z,1020.10
2023-02-06T10:46:31.444Z,1020.09
2023-02-06T10:47:31.381Z,1020.05
2023-02-06T10:48:31.344Z,1020.04
2023-02-06T10:49:31.357Z,1020.09
2023-02-06T10:50:31.330Z,1020.10
2023-02-06T10:51:31.324Z,1020.09
2023-02-06T10:52:31.305Z,1020.04
2023-02-06T10:53:31.269Z,1020.06
2023-02-06T10:54:31.549Z,1020.00
2023-02-06T10:55:31.259Z,1020.01
2023-02-06T10:56:31.256Z,1020.05
2023-02-06T10:57:31.336Z,1019.94
2023-02-06T10:58:31.228Z,1019.96
2023-02-06T10:59:31.209Z,1019.98
2023-02-06T11:00:31.203Z,1019.98
2023-02-06T11:01:31.207Z,1019.97
2023-02-06T11:02:31.218Z,1019.90
2023-02-06T11:03:31.184Z,1019.98
2023-02-06T11:04:31.191Z,1019.94
2023-02-06T11:05:31.260Z,1019.89
2023-02-06T11:06:31.257Z,1019.86
2023-02-06T11:07:31.111Z,1019.82
2023-02-06T11:08:31.172Z,1019.84
2023-02-06T11:09:31.098Z,1019.77
2023-02-06T11:10:31.068Z,1019.79
2023-02-06T11:11:33.207Z,1019.80
2023-02-06T11:12:31.155Z,1019.75
2023-02-06T11:13:31.041Z,1019.68
2023-02-06T11:14:31.122Z,1019.63
2023-02-06T11:15:31.030Z,1019.71
2023-02-06T11:16:31.129Z,1019.62
2023-02-06T11:17:31.005Z,1019.67
2023-02-06T11:18:31.000Z,1019.59
2023-02-06T11:19:31.050Z,1019.55
2023-02-06T11:20:30.993Z,1019.53
2023-02-06T11:21:30.951Z,1019.49
2023-02-06T11:22:33.331Z,1019.53
2023-02-06T11:23:32.062Z,1019.46
2023-02-06T11:24:30.910Z,1019.51
2023-02-06T11:25:30.913Z,1019.47
2023-02-06T11:26:31.167Z,1019.50
2023-02-06T11:27:30.930Z,1019.44
2023-02-06T11:28:30.881Z,1019.40
2023-02-06T11:29:30.888Z,1019.34
2023-02-06T11:30:30.932Z,1019.31
2023-02-06T11:31:30.917Z,1019.33
2023-02-06T11:32:30.862Z,1019.29
2023-02-06T11:33:30.916Z,1019.30
2023-02-06T11:34:30.801Z,1019.38
2023-02-06T11:35:30.831Z,1019.41
2023-02-06T11:36:30.807Z,1019.36
2023-02-06T11:37:32.314Z,1019.35
2023-02-06T11:38:30.752Z,1019.33
2023-02-06T11:39:30.754Z,1019.33
2023-02-06T11:40:30.766Z,1019.25
2023-02-06T11:41:30.743Z,1019.35
2023-02-06T11:42:30.709Z,1019.29
2023-02-06T11:43:30.802Z,1019.27
2023-02-06T11:44:30.757Z,1019.27
2023-02-06T11:45:30.794Z,1019.23
2023-02-06T11:46:30.705Z,1019.27
2023-02-06T11:47:31.281Z,1019.26
2023-02-06T11:48:30.688Z,1019.20
2023-02-06T11:49:30.652Z,1019.29
2023-02-06T11:50:30.640Z,1019.32
2023-02-06T11:51:30.626Z,1019.34
2023-02-06T11:52:30.617Z,1019.28
2023-02-06T11:53:30.611Z,1019.28
2023-02-06T11:54:30.886Z,1019.29
2023-02-06T11:55:30.564Z,1019.28
2023-02-06T11:56:30.567Z,1019.19
2023-02-06T11:57:30.528Z,1019.16
2023-02-06T11:58:30.530Z,1019.13
2023-02-06T11:59:30.515Z,1019.17
2023-02-06T12:00:30.521Z,1019.14
2023-02-06T12:01:30.506Z,1019.10
2023-02-06T12:02:30.635Z,1019.00
2023-02-06T12:03:30.651Z,1019.03
2023-02-06T12:04:30.468Z,1019.00
2023-02-06T12:05:30.489Z,1019.07